Fort Worth - NOAA's Hourly Summary for Wednesday, May 16, 2018
Hour Temp
(f)
RH
(%)
Solar Rad.
(MJ/m2)
Rainfall
(in)
Wind
(mph)
5/16/2018 12:00 AM 75 68 0 0 2.62
5/16/2018 1:00 AM 74 69 0 0 2.77
5/16/2018 2:00 AM 73 72 0 0 6.44
5/16/2018 3:00 AM 73 72 0 0 5.8
5/16/2018 4:00 AM 71 75 0 0 7.54
5/16/2018 5:00 AM 71 76 0 0 4.74
5/16/2018 6:00 AM 70 77 0.01 0 4.29
5/16/2018 7:00 AM 70 79 0.32 0 7.78
5/16/2018 8:00 AM 72 75 0.96 0 5.99
5/16/2018 9:00 AM 74 69 1.39 0 2.04
5/16/2018 10:00 AM 76 66 1.32 0 2.62
5/16/2018 11:00 AM 79 62 2.63 0 3.14
5/16/2018 12:00 PM 83 55 3.08 0 2.99
5/16/2018 1:00 PM 86 49 3.23 0 6.69
5/16/2018 2:00 PM 87 43 3.16 0 6.94
5/16/2018 3:00 PM 89 39 2.92 0 6.41
5/16/2018 4:00 PM 89 39 2.08 0 7.25
5/16/2018 5:00 PM 89 38 1.75 0 6.45
5/16/2018 6:00 PM 88 38 1.16 0 6.47
5/16/2018 7:00 PM 86 39 0.19 0 6.32
5/16/2018 8:00 PM 83 43 0.03 0 5.72
5/16/2018 9:00 PM 82 48 0 0 6.87
5/16/2018 10:00 PM 80 52 0 0 4.83
5/16/2018 11:00 PM 78 57 0 0 4.29
Data Summary 79 58 24.23 0.00 5.29